Ewaterfrd, Pennsylvania
Current Conditions -  °F | °C
As of 7:53 AM on Wednesday 22 Oct 2014 (Local Time) from KAOO Reporting Station
Overcast Overcast  
Wind Chill:   Ceiling: 2000
Heat Index:   Visibility: 10mi
Dew Point:   Wind: 10mph
Humidity: 86%   Direction: 10°N
Pressure: 30.02"   Gusts: NA
Location:  40.3617°N, 77.6745°W
Report Text: KAOO 221153Z AUTO 01009KT 10SM OVC020 09/07 A3002 RMK AO2 SLP170 60000 70001 T00890067 10100 20083 53015
Loading
Personal Weather Stations






























Interactive Weather Map
Tropical Storm Tracking
New forecast layout! Learn more

10-Day Weather Forecast

Advertisements
Track Severe Weather on mobile